sensor_id;sensor_type;location;lat;lon;timestamp;P1;durP1;ratioP1;P2;durP2;ratioP2
55350;SDS011;62194;49.480;10.986;2023-02-20T00:00:05;8.57;;;6.10;;
55350;SDS011;62194;49.480;10.986;2023-02-20T00:00:17;8.99;;;6.03;;
55350;SDS011;62194;49.480;10.986;2023-02-20T00:00:27;9.67;;;6.32;;
55350;SDS011;62194;49.480;10.986;2023-02-20T00:00:35;10.86;;;6.59;;
55350;SDS011;62194;49.480;10.986;2023-02-20T00:00:42;10.73;;;6.60;;
55350;SDS011;62194;49.480;10.986;2023-02-20T00:00:47;10.37;;;6.63;;
55350;SDS011;62194;49.480;10.986;2023-02-20T00:00:53;9.85;;;6.35;;
55350;SDS011;62194;49.480;10.986;2023-02-20T00:00:58;8.83;;;6.10;;
55350;SDS011;62194;49.480;10.986;2023-02-20T00:01:04;8.02;;;6.18;;
55350;SDS011;62194;49.480;10.986;2023-02-20T00:01:09;8.40;;;6.03;;
55350;SDS011;62194;49.480;10.986;2023-02-20T00:01:14;8.23;;;6.10;;
55350;SDS011;62194;49.480;10.986;2023-02-20T00:01:20;8.05;;;6.18;;
55350;SDS011;62194;49.480;10.986;2023-02-20T00:01:30;7.93;;;6.37;;
55350;SDS011;62194;49.480;10.986;2023-02-20T00:01:36;7.86;;;6.21;;
55350;SDS011;62194;49.480;10.986;2023-02-20T00:01:45;7.37;;;6.23;;
55350;SDS011;62194;49.480;10.986;2023-02-20T00:01:53;7.90;;;6.08;;
55350;SDS011;62194;49.480;10.986;2023-02-20T00:01:59;8.74;;;5.98;;
55350;SDS011;62194;49.480;10.986;2023-02-20T00:02:04;9.30;;;5.90;;
55350;SDS011;62194;49.480;10.986;2023-02-20T00:02:11;9.23;;;6.00;;
55350;SDS011;62194;49.480;10.986;2023-02-20T00:02:16;9.30;;;6.00;;
55350;SDS011;62194;49.480;10.986;2023-02-20T00:02:22;9.20;;;6.10;;
55350;SDS011;62194;49.480;10.986;2023-02-20T00:02:27;8.48;;;6.05;;
55350;SDS011;62194;49.480;10.986;2023-02-20T00:02:34;8.28;;;6.00;;
55350;SDS011;62194;49.480;10.986;2023-02-20T00:02:40;8.70;;;6.13;;
55350;SDS011;62194;49.480;10.986;2023-02-20T00:02:46;9.00;;;6.30;;
55350;SDS011;62194;49.480;10.986;2023-02-20T00:02:51;9.66;;;6.46;;
55350;SDS011;62194;49.480;10.986;2023-02-20T00:02:57;10.07;;;6.60;;
55350;SDS011;62194;49.480;10.986;2023-02-20T00:03:03;10.30;;;6.72;;
55350;SDS011;62194;49.480;10.986;2023-02-20T00:03:09;9.80;;;6.53;;
55350;SDS011;62194;49.480;10.986;2023-02-20T00:03:14;9.23;;;6.40;;
55350;SDS011;62194;49.480;10.986;2023-02-20T00:03:20;8.73;;;6.33;;
55350;SDS011;62194;49.480;10.986;2023-02-20T00:03:26;8.57;;;6.35;;
55350;SDS011;62194;49.480;10.986;2023-02-20T00:03:32;9.20;;;6.50;;
55350;SDS011;62194;49.480;10.986;2023-02-20T00:03:37;9.47;;;6.80;;
55350;SDS011;62194;49.480;10.986;2023-02-20T00:03:43;10.07;;;7.13;;
55350;SDS011;62194;49.480;10.986;2023-02-20T00:03:49;10.50;;;7.37;;
55350;SDS011;62194;49.480;10.986;2023-02-20T00:03:54;10.43;;;7.40;;
55350;SDS011;62194;49.480;10.986;2023-02-20T00:04:00;10.15;;;7.38;;
55350;SDS011;62194;49.480;10.986;2023-02-20T00:04:05;10.03;;;7.13;;
55350;SDS011;62194;49.480;10.986;2023-02-20T00:04:11;9.63;;;6.83;;
55350;SDS011;62194;49.480;10.986;2023-02-20T00:04:16;9.30;;;6.67;;
55350;SDS011;62194;49.480;10.986;2023-02-20T00:04:22;8.63;;;6.30;;
55350;SDS011;62194;49.480;10.986;2023-02-20T00:04:27;8.55;;;5.97;;
55350;SDS011;62194;49.480;10.986;2023-02-20T00:04:33;7.90;;;5.93;;
55350;SDS011;62194;49.480;10.986;2023-02-20T00:04:38;7.57;;;6.00;;
55350;SDS011;62194;49.480;10.986;2023-02-20T00:04:45;7.60;;;6.10;;
55350;SDS011;62194;49.480;10.986;2023-02-20T00:04:50;7.83;;;6.13;;
55350;SDS011;62194;49.480;10.986;2023-02-20T00:04:56;7.73;;;6.30;;
55350;SDS011;62194;49.480;10.986;2023-02-20T00:05:01;7.55;;;6.30;;
55350;SDS011;62194;49.480;10.986;2023-02-20T00:05:06;8.17;;;6.23;;
55350;SDS011;62194;49.480;10.986;2023-02-20T00:05:12;8.48;;;6.20;;
55350;SDS011;62194;49.480;10.986;2023-02-20T00:05:17;9.00;;;6.43;;
55350;SDS011;62194;49.480;10.986;2023-02-20T00:05:24;10.57;;;7.50;;
55350;SDS011;62194;49.480;10.986;2023-02-20T00:05:29;12.07;;;8.57;;
55350;SDS011;62194;49.480;10.986;2023-02-20T00:05:34;13.13;;;9.27;;
55350;SDS011;62194;49.480;10.986;2023-02-20T00:05:40;13.93;;;9.82;;
55350;SDS011;62194;49.480;10.986;2023-02-20T00:05:45;14.73;;;10.23;;
55350;SDS011;62194;49.480;10.986;2023-02-20T00:05:51;14.63;;;10.23;;
55350;SDS011;62194;49.480;10.986;2023-02-20T00:05:56;14.20;;;9.93;;
55350;SDS011;62194;49.480;10.986;2023-02-20T00:06:01;14.37;;;10.13;;
55350;SDS011;62194;49.480;10.986;2023-02-20T00:06:07;15.05;;;10.52;;
55350;SDS011;62194;49.480;10.986;2023-02-20T00:06:12;15.60;;;10.67;;
55350;SDS011;62194;49.480;10.986;2023-02-20T00:06:17;15.93;;;10.73;;
55350;SDS011;62194;49.480;10.986;2023-02-20T00:06:23;15.90;;;10.57;;
55350;SDS011;62194;49.480;10.986;2023-02-20T00:06:28;14.63;;;9.67;;
55350;SDS011;62194;49.480;10.986;2023-02-20T00:06:33;13.20;;;8.70;;
55350;SDS011;62194;49.480;10.986;2023-02-20T00:06:38;12.03;;;8.03;;
55350;SDS011;62194;49.480;10.986;2023-02-20T00:06:44;11.32;;;7.45;;
55350;SDS011;62194;49.480;10.986;2023-02-20T00:06:49;10.43;;;7.13;;
55350;SDS011;62194;49.480;10.986;2023-02-20T00:06:55;10.88;;;6.95;;
55350;SDS011;62194;49.480;10.986;2023-02-20T00:07:00;11.20;;;6.87;;
55350;SDS011;62194;49.480;10.986;2023-02-20T00:07:05;11.80;;;6.90;;
55350;SDS011;62194;49.480;10.986;2023-02-20T00:07:11;10.90;;;6.90;;
55350;SDS011;62194;49.480;10.986;2023-02-20T00:07:16;10.77;;;6.80;;
55350;SDS011;62194;49.480;10.986;2023-02-20T00:07:21;11.57;;;6.70;;
55350;SDS011;62194;49.480;10.986;2023-02-20T00:07:27;11.27;;;6.70;;
55350;SDS011;62194;49.480;10.986;2023-02-20T00:07:32;11.83;;;7.00;;
55350;SDS011;62194;49.480;10.986;2023-02-20T00:07:37;12.53;;;7.10;;
55350;SDS011;62194;49.480;10.986;2023-02-20T00:07:42;12.10;;;7.10;;
55350;SDS011;62194;49.480;10.986;2023-02-20T00:07:48;11.90;;;7.03;;
55350;SDS011;62194;49.480;10.986;2023-02-20T00:07:53;11.73;;;7.07;;
55350;SDS011;62194;49.480;10.986;2023-02-20T00:07:59;11.25;;;7.00;;
55350;SDS011;62194;49.480;10.986;2023-02-20T00:08:04;9.90;;;6.60;;
55350;SDS011;62194;49.480;10.986;2023-02-20T00:08:10;9.60;;;6.65;;
55350;SDS011;62194;49.480;10.986;2023-02-20T00:08:15;10.53;;;6.87;;
55350;SDS011;62194;49.480;10.986;2023-02-20T00:08:20;10.68;;;6.88;;
55350;SDS011;62194;49.480;10.986;2023-02-20T00:08:27;10.32;;;6.70;;
55350;SDS011;62194;49.480;10.986;2023-02-20T00:08:32;9.80;;;6.67;;
55350;SDS011;62194;49.480;10.986;2023-02-20T00:08:37;10.27;;;6.67;;
55350;SDS011;62194;49.480;10.986;2023-02-20T00:08:42;10.07;;;6.45;;
55350;SDS011;62194;49.480;10.986;2023-02-20T00:08:48;9.67;;;6.33;;
55350;SDS011;62194;49.480;10.986;2023-02-20T00:08:53;9.97;;;6.33;;
55350;SDS011;62194;49.480;10.986;2023-02-20T00:08:58;10.35;;;6.60;;
55350;SDS011;62194;49.480;10.986;2023-02-20T00:09:03;10.43;;;6.60;;
55350;SDS011;62194;49.480;10.986;2023-02-20T00:09:09;10.77;;;6.63;;
55350;SDS011;62194;49.480;10.986;2023-02-20T00:09:14;10.37;;;6.60;;
55350;SDS011;62194;49.480;10.986;2023-02-20T00:09:20;10.38;;;6.63;;
55350;SDS011;62194;49.480;10.986;2023-02-20T00:09:25;9.97;;;6.50;;
55350;SDS011;62194;49.480;10.986;2023-02-20T00:09:32;9.66;;;6.40;;
55350;SDS011;62194;49.480;10.986;2023-02-20T00:09:37;10.13;;;6.53;;
55350;SDS011;62194;49.480;10.986;2023-02-20T00:09:42;9.80;;;6.63;;
55350;SDS011;62194;49.480;10.986;2023-02-20T00:09:47;9.43;;;6.53;;
55350;SDS011;62194;49.480;10.986;2023-02-20T00:09:53;9.03;;;6.53;;
55350;SDS011;62194;49.480;10.986;2023-02-20T00:09:58;8.90;;;6.57;;
55350;SDS011;62194;49.480;10.986;2023-02-20T00:10:03;8.90;;;6.63;;
55350;SDS011;62194;49.480;10.986;2023-02-20T00:10:09;7.93;;;6.47;;
55350;SDS011;62194;49.480;10.986;2023-02-20T00:10:15;8.83;;;6.47;;
55350;SDS011;62194;49.480;10.986;2023-02-20T00:10:21;9.06;;;6.58;;
55350;SDS011;62194;49.480;10.986;2023-02-20T00:10:28;9.13;;;6.40;;
55350;SDS011;62194;49.480;10.986;2023-02-20T00:10:33;8.65;;;6.18;;
55350;SDS011;62194;49.480;10.986;2023-02-20T00:10:38;8.27;;;6.00;;
55350;SDS011;62194;49.480;10.986;2023-02-20T00:10:44;8.07;;;6.00;;
55350;SDS011;62194;49.480;10.986;2023-02-20T00:10:49;7.67;;;5.87;;
55350;SDS011;62194;49.480;10.986;2023-02-20T00:10:54;7.67;;;5.67;;
55350;SDS011;62194;49.480;10.986;2023-02-20T00:11:00;7.67;;;5.53;;
55350;SDS011;62194;49.480;10.986;2023-02-20T00:11:05;8.18;;;5.60;;
55350;SDS011;62194;49.480;10.986;2023-02-20T00:11:11;8.20;;;5.77;;
55350;SDS011;62194;49.480;10.986;2023-02-20T00:11:16;7.57;;;5.80;;
55350;SDS011;62194;49.480;10.986;2023-02-20T00:11:21;8.47;;;6.13;;
55350;SDS011;62194;49.480;10.986;2023-02-20T00:11:27;8.73;;;6.30;;
55350;SDS011;62194;49.480;10.986;2023-02-20T00:11:32;8.53;;;6.40;;
55350;SDS011;62194;49.480;10.986;2023-02-20T00:11:37;8.37;;;6.30;;
55350;SDS011;62194;49.480;10.986;2023-02-20T00:11:43;9.02;;;6.22;;
55350;SDS011;62194;49.480;10.986;2023-02-20T00:11:48;9.13;;;6.37;;
55350;SDS011;62194;49.480;10.986;2023-02-20T00:11:53;9.17;;;6.30;;
55350;SDS011;62194;49.480;10.986;2023-02-20T00:11:58;9.23;;;6.27;;
55350;SDS011;62194;49.480;10.986;2023-02-20T00:12:04;9.73;;;7.00;;
55350;SDS011;62194;49.480;10.986;2023-02-20T00:12:09;9.93;;;7.07;;
55350;SDS011;62194;49.480;10.986;2023-02-20T00:12:14;9.63;;;6.93;;
55350;SDS011;62194;49.480;10.986;2023-02-20T00:12:20;10.05;;;6.88;;
55350;SDS011;62194;49.480;10.986;2023-02-20T00:12:25;9.70;;;6.80;;
55350;SDS011;62194;49.480;10.986;2023-02-20T00:12:30;9.50;;;6.47;;
55350;SDS011;62194;49.480;10.986;2023-02-20T00:12:36;9.60;;;6.04;;
55350;SDS011;62194;49.480;10.986;2023-02-20T00:12:42;10.07;;;6.17;;
55350;SDS011;62194;49.480;10.986;2023-02-20T00:12:47;10.80;;;6.23;;
55350;SDS011;62194;49.480;10.986;2023-02-20T00:12:53;10.75;;;6.32;;
55350;SDS011;62194;49.480;10.986;2023-02-20T00:12:58;10.87;;;6.57;;
55350;SDS011;62194;49.480;10.986;2023-02-20T00:13:04;11.82;;;6.82;;
55350;SDS011;62194;49.480;10.986;2023-02-20T00:13:09;11.77;;;6.73;;
55350;SDS011;62194;49.480;10.986;2023-02-20T00:13:14;10.77;;;6.63;;
55350;SDS011;62194;49.480;10.986;2023-02-20T00:13:20;10.70;;;6.67;;
55350;SDS011;62194;49.480;10.986;2023-02-20T00:13:25;10.50;;;6.57;;
55350;SDS011;62194;49.480;10.986;2023-02-20T00:13:30;9.97;;;6.50;;
55350;SDS011;62194;49.480;10.986;2023-02-20T00:13:35;9.82;;;6.50;;
55350;SDS011;62194;49.480;10.986;2023-02-20T00:13:47;9.80;;;6.47;;
55350;SDS011;62194;49.480;10.986;2023-02-20T00:13:53;9.71;;;6.41;;
55350;SDS011;62194;49.480;10.986;2023-02-20T00:13:58;9.88;;;6.30;;
55350;SDS011;62194;49.480;10.986;2023-02-20T00:14:04;9.80;;;6.30;;
55350;SDS011;62194;49.480;10.986;2023-02-20T00:14:09;9.70;;;6.30;;
55350;SDS011;62194;49.480;10.986;2023-02-20T00:14:14;10.15;;;6.30;;
55350;SDS011;62194;49.480;10.986;2023-02-20T00:14:20;9.70;;;6.50;;
55350;SDS011;62194;49.480;10.986;2023-02-20T00:14:27;9.80;;;6.57;;
55350;SDS011;62194;49.480;10.986;2023-02-20T00:14:34;9.77;;;6.60;;
55350;SDS011;62194;49.480;10.986;2023-02-20T00:14:39;9.93;;;6.53;;
55350;SDS011;62194;49.480;10.986;2023-02-20T00:14:44;9.43;;;6.63;;
55350;SDS011;62194;49.480;10.986;2023-02-20T00:14:49;9.30;;;6.13;;
55350;SDS011;62194;49.480;10.986;2023-02-20T00:14:55;8.77;;;6.10;;
55350;SDS011;62194;49.480;10.986;2023-02-20T00:15:00;9.47;;;6.20;;
55350;SDS011;62194;49.480;10.986;2023-02-20T00:15:05;9.88;;;6.15;;
55350;SDS011;62194;49.480;10.986;2023-02-20T00:15:12;9.68;;;6.20;;
55350;SDS011;62194;49.480;10.986;2023-02-20T00:15:19;9.58;;;6.43;;
55350;SDS011;62194;49.480;10.986;2023-02-20T00:15:26;9.37;;;6.57;;
55350;SDS011;62194;49.480;10.986;2023-02-20T00:15:32;9.50;;;6.57;;
55350;SDS011;62194;49.480;10.986;2023-02-20T00:15:37;9.10;;;6.40;;
55350;SDS011;62194;49.480;10.986;2023-02-20T00:15:42;9.75;;;6.47;;
55350;SDS011;62194;49.480;10.986;2023-02-20T00:15:47;9.90;;;6.53;;
55350;SDS011;62194;49.480;10.986;2023-02-20T00:15:53;9.93;;;6.60;;
55350;SDS011;62194;49.480;10.986;2023-02-20T00:15:58;9.20;;;6.47;;
55350;SDS011;62194;49.480;10.986;2023-02-20T00:16:03;8.37;;;6.50;;
55350;SDS011;62194;49.480;10.986;2023-02-20T00:16:09;8.18;;;6.72;;
55350;SDS011;62194;49.480;10.986;2023-02-20T00:16:14;7.80;;;6.70;;
55350;SDS011;62194;49.480;10.986;2023-02-20T00:16:20;7.90;;;6.60;;
55350;SDS011;62194;49.480;10.986;2023-02-20T00:16:25;9.05;;;6.75;;
55350;SDS011;62194;49.480;10.986;2023-02-20T00:16:30;9.23;;;6.93;;
55350;SDS011;62194;49.480;10.986;2023-02-20T00:16:35;8.87;;;6.93;;
55350;SDS011;62194;49.480;10.986;2023-02-20T00:16:41;9.07;;;7.00;;
55350;SDS011;62194;49.480;10.986;2023-02-20T00:16:46;8.85;;;6.90;;
55350;SDS011;62194;49.480;10.986;2023-02-20T00:16:52;8.80;;;6.87;;
55350;SDS011;62194;49.480;10.986;2023-02-20T00:16:57;8.95;;;6.93;;
55350;SDS011;62194;49.480;10.986;2023-02-20T00:17:02;9.23;;;6.87;;
55350;SDS011;62194;49.480;10.986;2023-02-20T00:17:07;9.50;;;6.80;;
55350;SDS011;62194;49.480;10.986;2023-02-20T00:17:13;10.05;;;6.85;;
55350;SDS011;62194;49.480;10.986;2023-02-20T00:17:18;9.87;;;6.77;;
55350;SDS011;62194;49.480;10.986;2023-02-20T00:17:23;9.43;;;6.70;;
55350;SDS011;62194;49.480;10.986;2023-02-20T00:17:28;9.77;;;6.60;;
55350;SDS011;62194;49.480;10.986;2023-02-20T00:17:34;11.98;;;6.75;;
55350;SDS011;62194;49.480;10.986;2023-02-20T00:17:40;11.47;;;6.50;;
55350;SDS011;62194;49.480;10.986;2023-02-20T00:17:47;11.70;;;6.47;;
55350;SDS011;62194;49.480;10.986;2023-02-20T00:17:52;11.82;;;6.55;;
55350;SDS011;62194;49.480;10.986;2023-02-20T00:17:58;10.97;;;6.43;;
55350;SDS011;62194;49.480;10.986;2023-02-20T00:18:03;9.13;;;6.43;;
55350;SDS011;62194;49.480;10.986;2023-02-20T00:18:08;9.80;;;6.57;;
55350;SDS011;62194;49.480;10.986;2023-02-20T00:18:15;10.20;;;6.80;;
55350;SDS011;62194;49.480;10.986;2023-02-20T00:18:21;9.48;;;6.63;;
55350;SDS011;62194;49.480;10.986;2023-02-20T00:18:26;9.63;;;6.50;;
55350;SDS011;62194;49.480;10.986;2023-02-20T00:18:31;10.00;;;6.50;;
55350;SDS011;62194;49.480;10.986;2023-02-20T00:18:37;8.88;;;6.35;;
55350;SDS011;62194;49.480;10.986;2023-02-20T00:18:42;8.67;;;6.37;;
55350;SDS011;62194;49.480;10.986;2023-02-20T00:18:48;8.73;;;6.47;;
55350;SDS011;62194;49.480;10.986;2023-02-20T00:18:53;9.57;;;6.63;;
55350;SDS011;62194;49.480;10.986;2023-02-20T00:18:58;9.00;;;6.80;;
55350;SDS011;62194;49.480;10.986;2023-02-20T00:19:04;9.27;;;7.07;;
55350;SDS011;62194;49.480;10.986;2023-02-20T00:19:09;10.13;;;7.07;;
55350;SDS011;62194;49.480;10.986;2023-02-20T00:19:14;10.95;;;6.97;;
55350;SDS011;62194;49.480;10.986;2023-02-20T00:19:20;10.83;;;6.97;;
55350;SDS011;62194;49.480;10.986;2023-02-20T00:19:25;10.60;;;6.87;;
55350;SDS011;62194;49.480;10.986;2023-02-20T00:19:30;11.10;;;6.72;;
55350;SDS011;62194;49.480;10.986;2023-02-20T00:19:35;10.47;;;6.37;;
55350;SDS011;62194;49.480;10.986;2023-02-20T00:19:41;9.67;;;6.43;;
55350;SDS011;62194;49.480;10.986;2023-02-20T00:19:46;9.30;;;6.40;;
55350;SDS011;62194;49.480;10.986;2023-02-20T00:19:51;9.45;;;6.30;;
55350;SDS011;62194;49.480;10.986;2023-02-20T00:19:56;9.63;;;6.30;;
55350;SDS011;62194;49.480;10.986;2023-02-20T00:20:02;9.73;;;6.37;;
55350;SDS011;62194;49.480;10.986;2023-02-20T00:20:08;10.05;;;6.50;;
55350;SDS011;62194;49.480;10.986;2023-02-20T00:20:14;9.73;;;6.35;;
55350;SDS011;62194;49.480;10.986;2023-02-20T00:20:24;9.27;;;6.47;;
55350;SDS011;62194;49.480;10.986;2023-02-20T00:20:30;8.60;;;6.40;;
55350;SDS011;62194;49.480;10.986;2023-02-20T00:20:37;8.37;;;6.33;;
55350;SDS011;62194;49.480;10.986;2023-02-20T00:20:42;8.50;;;6.30;;
55350;SDS011;62194;49.480;10.986;2023-02-20T00:20:47;8.27;;;6.23;;
55350;SDS011;62194;49.480;10.986;2023-02-20T00:20:53;8.20;;;6.20;;
55350;SDS011;62194;49.480;10.986;2023-02-20T00:20:58;8.37;;;6.50;;
55350;SDS011;62194;49.480;10.986;2023-02-20T00:21:06;9.38;;;6.72;;
55350;SDS011;62194;49.480;10.986;2023-02-20T00:21:12;10.00;;;6.88;;
55350;SDS011;62194;49.480;10.986;2023-02-20T00:21:17;10.88;;;7.00;;
55350;SDS011;62194;49.480;10.986;2023-02-20T00:21:22;11.13;;;7.20;;
55350;SDS011;62194;49.480;10.986;2023-02-20T00:21:28;11.57;;;7.17;;
55350;SDS011;62194;49.480;10.986;2023-02-20T00:21:33;10.57;;;7.03;;
55350;SDS011;62194;49.480;10.986;2023-02-20T00:21:43;10.32;;;6.97;;
55350;SDS011;62194;49.480;10.986;2023-02-20T00:21:52;9.88;;;6.97;;
55350;SDS011;62194;49.480;10.986;2023-02-20T00:21:58;9.68;;;6.72;;
55350;SDS011;62194;49.480;10.986;2023-02-20T00:22:03;10.53;;;6.83;;
55350;SDS011;62194;49.480;10.986;2023-02-20T00:22:09;10.23;;;6.77;;
55350;SDS011;62194;49.480;10.986;2023-02-20T00:22:14;11.15;;;6.70;;
55350;SDS011;62194;49.480;10.986;2023-02-20T00:22:22;11.50;;;6.63;;
55350;SDS011;62194;49.480;10.986;2023-02-20T00:22:29;11.07;;;6.70;;
55350;SDS011;62194;49.480;10.986;2023-02-20T00:22:34;10.93;;;6.70;;
55350;SDS011;62194;49.480;10.986;2023-02-20T00:22:40;11.60;;;6.80;;
55350;SDS011;62194;49.480;10.986;2023-02-20T00:22:45;10.55;;;6.70;;
55350;SDS011;62194;49.480;10.986;2023-02-20T00:22:51;10.20;;;6.73;;
55350;SDS011;62194;49.480;10.986;2023-02-20T00:22:56;10.35;;;6.85;;
55350;SDS011;62194;49.480;10.986;2023-02-20T00:23:02;10.68;;;6.72;;
55350;SDS011;62194;49.480;10.986;2023-02-20T00:23:07;9.73;;;6.60;;
55350;SDS011;62194;49.480;10.986;2023-02-20T00:23:12;8.93;;;6.60;;
55350;SDS011;62194;49.480;10.986;2023-02-20T00:23:18;9.00;;;6.65;;
55350;SDS011;62194;49.480;10.986;2023-02-20T00:23:24;9.50;;;6.60;;
55350;SDS011;62194;49.480;10.986;2023-02-20T00:23:31;9.30;;;6.50;;
55350;SDS011;62194;49.480;10.986;2023-02-20T00:23:37;8.95;;;6.53;;
55350;SDS011;62194;49.480;10.986;2023-02-20T00:23:43;9.43;;;6.57;;
55350;SDS011;62194;49.480;10.986;2023-02-20T00:23:48;9.95;;;6.57;;
55350;SDS011;62194;49.480;10.986;2023-02-20T00:23:53;9.67;;;6.80;;
55350;SDS011;62194;49.480;10.986;2023-02-20T00:23:59;9.43;;;6.90;;
55350;SDS011;62194;49.480;10.986;2023-02-20T00:24:04;9.90;;;7.20;;
55350;SDS011;62194;49.480;10.986;2023-02-20T00:24:09;10.00;;;7.27;;
55350;SDS011;62194;49.480;10.986;2023-02-20T00:24:15;9.27;;;7.20;;
55350;SDS011;62194;49.480;10.986;2023-02-20T00:24:20;9.23;;;7.13;;
55350;SDS011;62194;49.480;10.986;2023-02-20T00:24:26;9.23;;;6.97;;
55350;SDS011;62194;49.480;10.986;2023-02-20T00:24:31;8.75;;;6.55;;
55350;SDS011;62194;49.480;10.986;2023-02-20T00:24:37;8.70;;;6.40;;
55350;SDS011;62194;49.480;10.986;2023-02-20T00:24:42;9.23;;;6.40;;
55350;SDS011;62194;49.480;10.986;2023-02-20T00:24:47;9.43;;;6.40;;
55350;SDS011;62194;49.480;10.986;2023-02-20T00:24:53;10.07;;;6.73;;
55350;SDS011;62194;49.480;10.986;2023-02-20T00:24:59;10.60;;;6.77;;
55350;SDS011;62194;49.480;10.986;2023-02-20T00:25:04;10.87;;;6.90;;
55350;SDS011;62194;49.480;10.986;2023-02-20T00:25:10;10.23;;;7.03;;
55350;SDS011;62194;49.480;10.986;2023-02-20T00:25:16;9.60;;;7.15;;
55350;SDS011;62194;49.480;10.986;2023-02-20T00:25:21;8.73;;;7.07;;
55350;SDS011;62194;49.480;10.986;2023-02-20T00:25:27;8.37;;;6.97;;
55350;SDS011;62194;49.480;10.986;2023-02-20T00:25:32;7.67;;;6.83;;
55350;SDS011;62194;49.480;10.986;2023-02-20T00:25:37;8.20;;;6.68;;
55350;SDS011;62194;49.480;10.986;2023-02-20T00:25:43;9.30;;;6.57;;
55350;SDS011;62194;49.480;10.986;2023-02-20T00:25:48;10.47;;;6.70;;
55350;SDS011;62194;49.480;10.986;2023-02-20T00:25:53;11.40;;;6.78;;
55350;SDS011;62194;49.480;10.986;2023-02-20T00:25:58;12.33;;;7.00;;
55350;SDS011;62194;49.480;10.986;2023-02-20T00:26:07;12.57;;;7.07;;
55350;SDS011;62194;49.480;10.986;2023-02-20T00:26:14;12.82;;;7.49;;
55350;SDS011;62194;49.480;10.986;2023-02-20T00:26:19;11.80;;;7.30;;
55350;SDS011;62194;49.480;10.986;2023-02-20T00:26:24;11.07;;;7.10;;
55350;SDS011;62194;49.480;10.986;2023-02-20T00:26:30;10.53;;;7.10;;
55350;SDS011;62194;49.480;10.986;2023-02-20T00:26:35;10.20;;;7.07;;
55350;SDS011;62194;49.480;10.986;2023-02-20T00:26:50;9.75;;;6.95;;
55350;SDS011;62194;49.480;10.986;2023-02-20T00:26:56;10.40;;;7.27;;
55350;SDS011;62194;49.480;10.986;2023-02-20T00:27:01;11.10;;;7.40;;
55350;SDS011;62194;49.480;10.986;2023-02-20T00:27:07;11.17;;;7.37;;
55350;SDS011;62194;49.480;10.986;2023-02-20T00:27:12;11.13;;;7.32;;
55350;SDS011;62194;49.480;10.986;2023-02-20T00:27:18;10.57;;;7.00;;
55350;SDS011;62194;49.480;10.986;2023-02-20T00:27:23;10.15;;;6.93;;
55350;SDS011;62194;49.480;10.986;2023-02-20T00:27:28;9.80;;;6.63;;
55350;SDS011;62194;49.480;10.986;2023-02-20T00:27:34;9.03;;;6.60;;
55350;SDS011;62194;49.480;10.986;2023-02-20T00:27:39;8.90;;;6.57;;
55350;SDS011;62194;49.480;10.986;2023-02-20T00:27:46;8.80;;;6.62;;
55350;SDS011;62194;49.480;10.986;2023-02-20T00:27:51;9.37;;;6.67;;
55350;SDS011;62194;49.480;10.986;2023-02-20T00:27:57;10.30;;;6.87;;
55350;SDS011;62194;49.480;10.986;2023-02-20T00:28:02;10.30;;;6.93;;
55350;SDS011;62194;49.480;10.986;2023-02-20T00:28:08;10.63;;;6.88;;
55350;SDS011;62194;49.480;10.986;2023-02-20T00:28:13;11.37;;;6.80;;
55350;SDS011;62194;49.480;10.986;2023-02-20T00:28:18;10.63;;;6.80;;
55350;SDS011;62194;49.480;10.986;2023-02-20T00:28:24;9.87;;;6.67;;
55350;SDS011;62194;49.480;10.986;2023-02-20T00:28:29;9.68;;;6.50;;
55350;SDS011;62194;49.480;10.986;2023-02-20T00:28:36;10.20;;;6.53;;
55350;SDS011;62194;49.480;10.986;2023-02-20T00:28:43;9.50;;;6.52;;
55350;SDS011;62194;49.480;10.986;2023-02-20T00:28:48;10.17;;;6.60;;
55350;SDS011;62194;49.480;10.986;2023-02-20T00:28:53;10.10;;;6.60;;
55350;SDS011;62194;49.480;10.986;2023-02-20T00:28:59;9.98;;;6.60;;
55350;SDS011;62194;49.480;10.986;2023-02-20T00:29:04;10.13;;;6.80;;
55350;SDS011;62194;49.480;10.986;2023-02-20T00:29:09;10.27;;;7.00;;
55350;SDS011;62194;49.480;10.986;2023-02-20T00:29:18;10.40;;;7.00;;
55350;SDS011;62194;49.480;10.986;2023-02-20T00:29:24;10.88;;;7.04;;
55350;SDS011;62194;49.480;10.986;2023-02-20T00:29:30;10.77;;;7.07;;
55350;SDS011;62194;49.480;10.986;2023-02-20T00:29:35;10.63;;;6.93;;
55350;SDS011;62194;49.480;10.986;2023-02-20T00:29:41;10.90;;;6.90;;
55350;SDS011;62194;49.480;10.986;2023-02-20T00:29:48;10.90;;;6.88;;
55350;SDS011;62194;49.480;10.986;2023-02-20T00:29:53;10.45;;;6.70;;
55350;SDS011;62194;49.480;10.986;2023-02-20T00:29:59;10.37;;;6.60;;
55350;SDS011;62194;49.480;10.986;2023-02-20T00:30:05;10.70;;;6.83;;
55350;SDS011;62194;49.480;10.986;2023-02-20T00:30:14;10.12;;;6.98;;
55350;SDS011;62194;49.480;10.986;2023-02-20T00:30:24;10.43;;;7.03;;
55350;SDS011;62194;49.480;10.986;2023-02-20T00:30:30;10.30;;;7.05;;
55350;SDS011;62194;49.480;10.986;2023-02-20T00:30:35;9.67;;;6.77;;
55350;SDS011;62194;49.480;10.986;2023-02-20T00:30:40;9.57;;;6.43;;
55350;SDS011;62194;49.480;10.986;2023-02-20T00:30:46;9.93;;;6.40;;
55350;SDS011;62194;49.480;10.986;2023-02-20T00:30:51;9.90;;;6.53;;
55350;SDS011;62194;49.480;10.986;2023-02-20T00:30:56;10.07;;;6.53;;
55350;SDS011;62194;49.480;10.986;2023-02-20T00:31:02;10.07;;;6.72;;
55350;SDS011;62194;49.480;10.986;2023-02-20T00:31:07;10.17;;;7.07;;
55350;SDS011;62194;49.480;10.986;2023-02-20T00:31:16;10.37;;;7.37;;
55350;SDS011;62194;49.480;10.986;2023-02-20T00:31:23;10.28;;;7.38;;
55350;SDS011;62194;49.480;10.986;2023-02-20T00:31:28;10.80;;;7.43;;
55350;SDS011;62194;49.480;10.986;2023-02-20T00:31:34;11.57;;;7.37;;
55350;SDS011;62194;49.480;10.986;2023-02-20T00:31:39;11.67;;;7.00;;
55350;SDS011;62194;49.480;10.986;2023-02-20T00:31:51;11.38;;;6.82;;
55350;SDS011;62194;49.480;10.986;2023-02-20T00:31:59;10.80;;;6.83;;
55350;SDS011;62194;49.480;10.986;2023-02-20T00:32:06;9.40;;;6.83;;
55350;SDS011;62194;49.480;10.986;2023-02-20T00:32:11;9.03;;;6.87;;
55350;SDS011;62194;49.480;10.986;2023-02-20T00:32:17;9.32;;;6.88;;
55350;SDS011;62194;49.480;10.986;2023-02-20T00:32:22;9.77;;;6.90;;
55350;SDS011;62194;49.480;10.986;2023-02-20T00:32:28;8.77;;;6.70;;
55350;SDS011;62194;49.480;10.986;2023-02-20T00:32:33;8.65;;;6.75;;
55350;SDS011;62194;49.480;10.986;2023-02-20T00:32:38;8.60;;;6.77;;
55350;SDS011;62194;49.480;10.986;2023-02-20T00:32:44;9.20;;;7.03;;
55350;SDS011;62194;49.480;10.986;2023-02-20T00:32:52;8.68;;;7.07;;
55350;SDS011;62194;49.480;10.986;2023-02-20T00:32:58;8.90;;;7.24;;
55350;SDS011;62194;49.480;10.986;2023-02-20T00:33:04;8.98;;;7.28;;
55350;SDS011;62194;49.480;10.986;2023-02-20T00:33:09;9.17;;;7.03;;
55350;SDS011;62194;49.480;10.986;2023-02-20T00:33:15;9.60;;;7.10;;
55350;SDS011;62194;49.480;10.986;2023-02-20T00:33:20;9.25;;;6.88;;
55350;SDS011;62194;49.480;10.986;2023-02-20T00:33:25;8.87;;;6.77;;
55350;SDS011;62194;49.480;10.986;2023-02-20T00:33:31;9.40;;;6.77;;
55350;SDS011;62194;49.480;10.986;2023-02-20T00:33:36;9.57;;;6.78;;
55350;SDS011;62194;49.480;10.986;2023-02-20T00:33:41;9.67;;;7.00;;
55350;SDS011;62194;49.480;10.986;2023-02-20T00:33:47;9.17;;;7.00;;
55350;SDS011;62194;49.480;10.986;2023-02-20T00:33:52;9.57;;;7.03;;
55350;SDS011;62194;49.480;10.986;2023-02-20T00:33:57;9.57;;;6.90;;
55350;SDS011;62194;49.480;10.986;2023-02-20T00:34:02;9.67;;;6.80;;